sensor_id;sensor_type;location;lat;lon;timestamp;temperature;humidity
59651;DHT22;45954;49.768;8.636;2023-07-20T00:02:00;20.80;99.90
59651;DHT22;45954;49.768;8.636;2023-07-20T00:04:28;20.70;99.90
59651;DHT22;45954;49.768;8.636;2023-07-20T00:06:54;20.70;99.90
59651;DHT22;45954;49.768;8.636;2023-07-20T00:09:20;20.70;99.90
59651;DHT22;45954;49.768;8.636;2023-07-20T00:11:52;20.60;99.90
59651;DHT22;45954;49.768;8.636;2023-07-20T00:14:19;20.70;99.90
59651;DHT22;45954;49.768;8.636;2023-07-20T00:16:46;20.60;99.90
59651;DHT22;45954;49.768;8.636;2023-07-20T00:19:14;20.40;99.90
59651;DHT22;45954;49.768;8.636;2023-07-20T00:21:42;20.30;99.90
59651;DHT22;45954;49.768;8.636;2023-07-20T00:24:08;20.30;99.90
59651;DHT22;45954;49.768;8.636;2023-07-20T00:26:34;20.20;99.90
59651;DHT22;45954;49.768;8.636;2023-07-20T00:29:00;20.20;99.90
59651;DHT22;45954;49.768;8.636;2023-07-20T00:31:26;20.20;99.90
59651;DHT22;45954;49.768;8.636;2023-07-20T00:33:52;20.20;99.90
59651;DHT22;45954;49.768;8.636;2023-07-20T00:36:18;20.30;99.90
59651;DHT22;45954;49.768;8.636;2023-07-20T00:38:44;20.30;99.90
59651;DHT22;45954;49.768;8.636;2023-07-20T00:41:10;20.20;99.90
59651;DHT22;45954;49.768;8.636;2023-07-20T00:43:36;20.30;99.90
59651;DHT22;45954;49.768;8.636;2023-07-20T00:46:02;20.30;99.90
59651;DHT22;45954;49.768;8.636;2023-07-20T00:48:29;20.50;99.90
59651;DHT22;45954;49.768;8.636;2023-07-20T00:50:57;20.40;99.90
59651;DHT22;45954;49.768;8.636;2023-07-20T00:53:24;20.20;99.90
59651;DHT22;45954;49.768;8.636;2023-07-20T00:55:50;19.90;99.90
59651;DHT22;45954;49.768;8.636;2023-07-20T00:58:16;19.90;99.90
59651;DHT22;45954;49.768;8.636;2023-07-20T01:00:42;19.90;99.90
59651;DHT22;45954;49.768;8.636;2023-07-20T01:03:08;19.90;99.90
59651;DHT22;45954;49.768;8.636;2023-07-20T01:14:49;19.50;99.90
59651;DHT22;45954;49.768;8.636;2023-07-20T01:17:15;19.50;99.90
59651;DHT22;45954;49.768;8.636;2023-07-20T01:19:41;19.50;99.90
59651;DHT22;45954;49.768;8.636;2023-07-20T01:32:02;19.30;99.90
59651;DHT22;45954;49.768;8.636;2023-07-20T01:34:31;19.40;99.90
59651;DHT22;45954;49.768;8.636;2023-07-20T01:36:59;19.40;99.90
59651;DHT22;45954;49.768;8.636;2023-07-20T01:39:26;19.50;99.90
59651;DHT22;45954;49.768;8.636;2023-07-20T01:41:53;19.50;99.90
59651;DHT22;45954;49.768;8.636;2023-07-20T01:44:19;19.60;99.90
59651;DHT22;45954;49.768;8.636;2023-07-20T01:46:45;19.50;99.90
59651;DHT22;45954;49.768;8.636;2023-07-20T01:49:11;19.40;99.90
59651;DHT22;45954;49.768;8.636;2023-07-20T01:51:37;19.20;99.90
59651;DHT22;45954;49.768;8.636;2023-07-20T01:54:03;19.10;99.90
59651;DHT22;45954;49.768;8.636;2023-07-20T01:56:29;18.90;99.90
59651;DHT22;45954;49.768;8.636;2023-07-20T01:58:54;19.00;99.90
59651;DHT22;45954;49.768;8.636;2023-07-20T02:01:21;18.90;99.90
59651;DHT22;45954;49.768;8.636;2023-07-20T02:03:46;18.60;99.90
59651;DHT22;45954;49.768;8.636;2023-07-20T02:06:12;19.70;99.90
59651;DHT22;45954;49.768;8.636;2023-07-20T02:08:38;19.60;99.90
59651;DHT22;45954;49.768;8.636;2023-07-20T02:11:04;18.90;99.90
59651;DHT22;45954;49.768;8.636;2023-07-20T02:13:30;19.20;99.90
59651;DHT22;45954;49.768;8.636;2023-07-20T02:15:56;18.90;99.90
59651;DHT22;45954;49.768;8.636;2023-07-20T02:18:22;18.90;99.90
59651;DHT22;45954;49.768;8.636;2023-07-20T02:20:47;19.20;99.90
59651;DHT22;45954;49.768;8.636;2023-07-20T02:23:13;19.20;99.90
59651;DHT22;45954;49.768;8.636;2023-07-20T02:25:40;19.10;99.90
59651;DHT22;45954;49.768;8.636;2023-07-20T02:28:07;18.70;99.90
59651;DHT22;45954;49.768;8.636;2023-07-20T02:30:33;18.90;99.90
59651;DHT22;45954;49.768;8.636;2023-07-20T02:32:59;19.00;99.90
59651;DHT22;45954;49.768;8.636;2023-07-20T02:35:25;18.90;99.90
59651;DHT22;45954;49.768;8.636;2023-07-20T02:37:51;19.10;99.90
59651;DHT22;45954;49.768;8.636;2023-07-20T02:40:17;18.60;99.90
59651;DHT22;45954;49.768;8.636;2023-07-20T02:42:43;18.60;99.90
59651;DHT22;45954;49.768;8.636;2023-07-20T02:45:09;18.40;99.90
59651;DHT22;45954;49.768;8.636;2023-07-20T02:47:35;18.30;99.90
59651;DHT22;45954;49.768;8.636;2023-07-20T02:50:01;18.30;99.90
59651;DHT22;45954;49.768;8.636;2023-07-20T02:52:26;18.20;99.90
59651;DHT22;45954;49.768;8.636;2023-07-20T02:54:52;18.10;99.90
59651;DHT22;45954;49.768;8.636;2023-07-20T02:57:18;18.00;99.90
59651;DHT22;45954;49.768;8.636;2023-07-20T02:59:44;18.00;99.90
59651;DHT22;45954;49.768;8.636;2023-07-20T03:02:10;18.20;99.90
59651;DHT22;45954;49.768;8.636;2023-07-20T03:04:36;18.10;99.90
59651;DHT22;45954;49.768;8.636;2023-07-20T03:07:05;18.30;99.90
59651;DHT22;45954;49.768;8.636;2023-07-20T03:09:31;18.10;99.90
59651;DHT22;45954;49.768;8.636;2023-07-20T03:11:57;18.00;99.90
59651;DHT22;45954;49.768;8.636;2023-07-20T03:14:23;18.00;99.90
59651;DHT22;45954;49.768;8.636;2023-07-20T03:16:50;17.90;99.90
59651;DHT22;45954;49.768;8.636;2023-07-20T03:19:15;18.10;99.90
59651;DHT22;45954;49.768;8.636;2023-07-20T03:21:41;18.10;99.90
59651;DHT22;45954;49.768;8.636;2023-07-20T03:24:10;17.90;99.90
59651;DHT22;45954;49.768;8.636;2023-07-20T03:26:36;18.10;99.90
59651;DHT22;45954;49.768;8.636;2023-07-20T03:29:03;17.80;99.90
59651;DHT22;45954;49.768;8.636;2023-07-20T03:31:29;17.70;99.90
59651;DHT22;45954;49.768;8.636;2023-07-20T03:33:55;18.10;99.90
59651;DHT22;45954;49.768;8.636;2023-07-20T03:36:21;18.10;99.90
59651;DHT22;45954;49.768;8.636;2023-07-20T03:38:47;18.20;99.90
59651;DHT22;45954;49.768;8.636;2023-07-20T03:41:13;17.90;99.90
59651;DHT22;45954;49.768;8.636;2023-07-20T03:43:41;18.10;99.90
59651;DHT22;45954;49.768;8.636;2023-07-20T03:46:07;18.10;99.90
59651;DHT22;45954;49.768;8.636;2023-07-20T03:48:33;18.10;99.90
59651;DHT22;45954;49.768;8.636;2023-07-20T03:50:59;18.30;99.90
59651;DHT22;45954;49.768;8.636;2023-07-20T03:53:26;18.10;99.90
59651;DHT22;45954;49.768;8.636;2023-07-20T03:55:53;17.70;99.90
59651;DHT22;45954;49.768;8.636;2023-07-20T03:58:20;17.40;99.90
59651;DHT22;45954;49.768;8.636;2023-07-20T04:00:48;17.20;99.90
59651;DHT22;45954;49.768;8.636;2023-07-20T04:03:21;17.30;99.90
59651;DHT22;45954;49.768;8.636;2023-07-20T04:05:50;17.40;99.90
59651;DHT22;45954;49.768;8.636;2023-07-20T04:08:16;17.40;99.90
59651;DHT22;45954;49.768;8.636;2023-07-20T04:10:45;17.40;99.90
59651;DHT22;45954;49.768;8.636;2023-07-20T04:13:11;17.60;99.90
59651;DHT22;45954;49.768;8.636;2023-07-20T04:15:37;17.70;99.90
59651;DHT22;45954;49.768;8.636;2023-07-20T04:18:03;17.30;99.90
59651;DHT22;45954;49.768;8.636;2023-07-20T04:20:29;17.30;99.90
59651;DHT22;45954;49.768;8.636;2023-07-20T04:22:55;17.50;99.90
59651;DHT22;45954;49.768;8.636;2023-07-20T04:25:21;17.50;99.90
59651;DHT22;45954;49.768;8.636;2023-07-20T04:27:47;17.60;99.90
59651;DHT22;45954;49.768;8.636;2023-07-20T04:30:13;17.50;99.90
59651;DHT22;45954;49.768;8.636;2023-07-20T04:32:39;17.50;99.90
59651;DHT22;45954;49.768;8.636;2023-07-20T04:35:18;17.50;99.90
59651;DHT22;45954;49.768;8.636;2023-07-20T04:37:47;17.60;99.90
59651;DHT22;45954;49.768;8.636;2023-07-20T04:40:16;17.90;99.90
59651;DHT22;45954;49.768;8.636;2023-07-20T04:42:41;18.20;99.90
59651;DHT22;45954;49.768;8.636;2023-07-20T04:45:08;18.10;99.90
59651;DHT22;45954;49.768;8.636;2023-07-20T04:47:34;18.10;99.90
59651;DHT22;45954;49.768;8.636;2023-07-20T04:50:00;18.20;99.90
59651;DHT22;45954;49.768;8.636;2023-07-20T04:52:25;18.40;99.90
59651;DHT22;45954;49.768;8.636;2023-07-20T04:54:51;18.40;99.90
59651;DHT22;45954;49.768;8.636;2023-07-20T04:57:17;18.40;99.90
59651;DHT22;45954;49.768;8.636;2023-07-20T04:59:43;18.40;99.90
59651;DHT22;45954;49.768;8.636;2023-07-20T05:02:09;18.60;99.90
59651;DHT22;45954;49.768;8.636;2023-07-20T05:04:34;18.70;99.90
59651;DHT22;45954;49.768;8.636;2023-07-20T05:07:00;18.80;99.90
59651;DHT22;45954;49.768;8.636;2023-07-20T05:09:26;18.90;99.90
59651;DHT22;45954;49.768;8.636;2023-07-20T05:11:52;19.00;99.90
59651;DHT22;45954;49.768;8.636;2023-07-20T05:14:18;19.10;99.90
59651;DHT22;45954;49.768;8.636;2023-07-20T05:16:44;19.30;99.90
59651;DHT22;45954;49.768;8.636;2023-07-20T05:19:09;19.30;99.90
59651;DHT22;45954;49.768;8.636;2023-07-20T05:21:35;19.40;99.90
59651;DHT22;45954;49.768;8.636;2023-07-20T05:24:01;19.30;99.90
59651;DHT22;45954;49.768;8.636;2023-07-20T05:26:27;19.30;99.90
59651;DHT22;45954;49.768;8.636;2023-07-20T05:28:53;19.40;99.90
59651;DHT22;45954;49.768;8.636;2023-07-20T05:31:19;19.40;99.90
59651;DHT22;45954;49.768;8.636;2023-07-20T05:33:44;19.50;99.90
59651;DHT22;45954;49.768;8.636;2023-07-20T05:36:10;19.50;99.90
59651;DHT22;45954;49.768;8.636;2023-07-20T05:38:36;19.50;99.90
59651;DHT22;45954;49.768;8.636;2023-07-20T05:41:02;19.50;99.90
59651;DHT22;45954;49.768;8.636;2023-07-20T05:43:29;19.50;99.90
59651;DHT22;45954;49.768;8.636;2023-07-20T05:45:55;19.40;99.90
59651;DHT22;45954;49.768;8.636;2023-07-20T05:48:21;19.60;99.90
59651;DHT22;45954;49.768;8.636;2023-07-20T05:50:49;19.80;99.90
59651;DHT22;45954;49.768;8.636;2023-07-20T05:53:15;19.70;99.90
59651;DHT22;45954;49.768;8.636;2023-07-20T05:55:41;19.70;99.90
59651;DHT22;45954;49.768;8.636;2023-07-20T05:58:07;19.60;99.90
59651;DHT22;45954;49.768;8.636;2023-07-20T06:00:33;19.70;99.90
59651;DHT22;45954;49.768;8.636;2023-07-20T06:02:59;19.80;99.90
59651;DHT22;45954;49.768;8.636;2023-07-20T06:05:24;19.80;99.90
59651;DHT22;45954;49.768;8.636;2023-07-20T06:07:50;19.90;99.80
59651;DHT22;45954;49.768;8.636;2023-07-20T06:10:16;19.80;99.90
59651;DHT22;45954;49.768;8.636;2023-07-20T06:12:42;19.70;99.90
59651;DHT22;45954;49.768;8.636;2023-07-20T06:15:25;19.70;99.60
59651;DHT22;45954;49.768;8.636;2023-07-20T06:17:53;19.70;99.50
59651;DHT22;45954;49.768;8.636;2023-07-20T06:20:20;19.60;99.90
59651;DHT22;45954;49.768;8.636;2023-07-20T06:22:47;19.60;99.90
59651;DHT22;45954;49.768;8.636;2023-07-20T06:25:13;19.90;99.90
59651;DHT22;45954;49.768;8.636;2023-07-20T06:27:39;20.10;99.80
59651;DHT22;45954;49.768;8.636;2023-07-20T06:30:05;20.20;99.70
59651;DHT22;45954;49.768;8.636;2023-07-20T06:32:31;20.30;99.90
59651;DHT22;45954;49.768;8.636;2023-07-20T06:34:58;20.20;99.40
59651;DHT22;45954;49.768;8.636;2023-07-20T06:37:23;20.30;99.70
59651;DHT22;45954;49.768;8.636;2023-07-20T06:39:49;20.40;99.20
59651;DHT22;45954;49.768;8.636;2023-07-20T06:42:15;20.30;99.30
59651;DHT22;45954;49.768;8.636;2023-07-20T06:44:41;20.60;99.10
59651;DHT22;45954;49.768;8.636;2023-07-20T06:47:07;20.50;99.10
59651;DHT22;45954;49.768;8.636;2023-07-20T06:49:33;20.30;98.60
59651;DHT22;45954;49.768;8.636;2023-07-20T06:51:59;19.90;99.00
59651;DHT22;45954;49.768;8.636;2023-07-20T06:54:24;19.80;99.20
59651;DHT22;45954;49.768;8.636;2023-07-20T06:56:50;19.70;99.30
59651;DHT22;45954;49.768;8.636;2023-07-20T06:59:16;20.00;99.70
59651;DHT22;45954;49.768;8.636;2023-07-20T07:01:42;19.80;99.30
59651;DHT22;45954;49.768;8.636;2023-07-20T07:04:08;19.60;99.70
59651;DHT22;45954;49.768;8.636;2023-07-20T07:06:35;19.70;99.90
59651;DHT22;45954;49.768;8.636;2023-07-20T07:09:02;19.90;99.60
59651;DHT22;45954;49.768;8.636;2023-07-20T07:11:29;19.90;99.20
59651;DHT22;45954;49.768;8.636;2023-07-20T07:13:55;19.50;99.90
59651;DHT22;45954;49.768;8.636;2023-07-20T07:16:21;19.80;99.70
59651;DHT22;45954;49.768;8.636;2023-07-20T07:18:47;20.20;99.60
59651;DHT22;45954;49.768;8.636;2023-07-20T07:21:13;20.00;99.30
59651;DHT22;45954;49.768;8.636;2023-07-20T07:23:40;20.20;99.30
59651;DHT22;45954;49.768;8.636;2023-07-20T07:26:05;20.60;98.90
59651;DHT22;45954;49.768;8.636;2023-07-20T07:28:31;20.60;98.60
59651;DHT22;45954;49.768;8.636;2023-07-20T07:30:57;20.70;98.50
59651;DHT22;45954;49.768;8.636;2023-07-20T07:33:24;20.70;98.60
59651;DHT22;45954;49.768;8.636;2023-07-20T07:35:51;21.10;98.30
59651;DHT22;45954;49.768;8.636;2023-07-20T07:38:19;21.10;98.00
59651;DHT22;45954;49.768;8.636;2023-07-20T07:40:45;20.80;98.20
59651;DHT22;45954;49.768;8.636;2023-07-20T07:43:12;20.20;98.60
59651;DHT22;45954;49.768;8.636;2023-07-20T07:45:40;20.40;98.80
59651;DHT22;45954;49.768;8.636;2023-07-20T07:48:07;20.40;99.10
59651;DHT22;45954;49.768;8.636;2023-07-20T07:50:34;20.50;99.10
59651;DHT22;45954;49.768;8.636;2023-07-20T07:53:00;20.20;99.20
59651;DHT22;45954;49.768;8.636;2023-07-20T07:55:26;20.50;99.20
59651;DHT22;45954;49.768;8.636;2023-07-20T07:57:52;20.50;98.50
59651;DHT22;45954;49.768;8.636;2023-07-20T08:00:18;20.70;99.00
59651;DHT22;45954;49.768;8.636;2023-07-20T08:02:45;21.00;98.40
59651;DHT22;45954;49.768;8.636;2023-07-20T08:05:13;21.30;98.30
59651;DHT22;45954;49.768;8.636;2023-07-20T08:07:40;21.40;98.40
59651;DHT22;45954;49.768;8.636;2023-07-20T08:10:07;21.30;97.70
59651;DHT22;45954;49.768;8.636;2023-07-20T08:12:33;21.50;98.10
59651;DHT22;45954;49.768;8.636;2023-07-20T08:14:59;21.80;98.40
59651;DHT22;45954;49.768;8.636;2023-07-20T08:17:25;21.90;97.40
59651;DHT22;45954;49.768;8.636;2023-07-20T08:19:51;21.90;97.20
59651;DHT22;45954;49.768;8.636;2023-07-20T08:22:17;21.40;97.60
59651;DHT22;45954;49.768;8.636;2023-07-20T08:24:44;21.00;98.20
59651;DHT22;45954;49.768;8.636;2023-07-20T08:27:10;21.20;97.80
59651;DHT22;45954;49.768;8.636;2023-07-20T08:29:36;21.40;97.90
59651;DHT22;45954;49.768;8.636;2023-07-20T08:32:03;21.50;98.00
59651;DHT22;45954;49.768;8.636;2023-07-20T08:34:30;21.80;97.80
59651;DHT22;45954;49.768;8.636;2023-07-20T08:36:57;21.90;97.60
59651;DHT22;45954;49.768;8.636;2023-07-20T08:39:23;22.00;97.00
59651;DHT22;45954;49.768;8.636;2023-07-20T08:41:54;22.40;97.50
59651;DHT22;45954;49.768;8.636;2023-07-20T08:44:21;22.40;97.40
59651;DHT22;45954;49.768;8.636;2023-07-20T08:46:49;22.20;96.70
59651;DHT22;45954;49.768;8.636;2023-07-20T08:49:17;22.20;97.10
59651;DHT22;45954;49.768;8.636;2023-07-20T08:51:46;22.10;96.90
59651;DHT22;45954;49.768;8.636;2023-07-20T08:54:13;22.10;96.70
59651;DHT22;45954;49.768;8.636;2023-07-20T08:56:41;22.20;96.30
59651;DHT22;45954;49.768;8.636;2023-07-20T08:59:09;21.70;96.70
59651;DHT22;45954;49.768;8.636;2023-07-20T09:01:37;22.00;97.00
59651;DHT22;45954;49.768;8.636;2023-07-20T09:04:04;22.10;96.60
59651;DHT22;45954;49.768;8.636;2023-07-20T09:06:31;22.60;96.50
59651;DHT22;45954;49.768;8.636;2023-07-20T09:08:57;22.60;95.80
59651;DHT22;45954;49.768;8.636;2023-07-20T09:11:23;22.30;95.80
59651;DHT22;45954;49.768;8.636;2023-07-20T09:14:08;22.60;95.30
59651;DHT22;45954;49.768;8.636;2023-07-20T09:16:54;22.80;95.10
59651;DHT22;45954;49.768;8.636;2023-07-20T09:19:22;22.60;94.90
59651;DHT22;45954;49.768;8.636;2023-07-20T09:21:52;22.80;95.00
59651;DHT22;45954;49.768;8.636;2023-07-20T09:24:20;23.00;95.10
59651;DHT22;45954;49.768;8.636;2023-07-20T09:26:47;22.80;94.50
59651;DHT22;45954;49.768;8.636;2023-07-20T09:29:16;22.90;94.70
59651;DHT22;45954;49.768;8.636;2023-07-20T09:32:01;23.10;94.60
59651;DHT22;45954;49.768;8.636;2023-07-20T09:34:29;23.20;94.80
59651;DHT22;45954;49.768;8.636;2023-07-20T09:36:59;23.10;94.70
59651;DHT22;45954;49.768;8.636;2023-07-20T09:39:27;22.60;95.10
59651;DHT22;45954;49.768;8.636;2023-07-20T09:41:53;23.00;95.10
59651;DHT22;45954;49.768;8.636;2023-07-20T09:44:19;23.10;94.50
59651;DHT22;45954;49.768;8.636;2023-07-20T09:46:47;22.60;94.50
59651;DHT22;45954;49.768;8.636;2023-07-20T09:49:14;22.70;95.30
59651;DHT22;45954;49.768;8.636;2023-07-20T09:51:41;23.20;95.40
59651;DHT22;45954;49.768;8.636;2023-07-20T09:54:07;23.20;94.70
59651;DHT22;45954;49.768;8.636;2023-07-20T09:56:35;23.10;93.80
59651;DHT22;45954;49.768;8.636;2023-07-20T09:59:01;23.50;94.30
59651;DHT22;45954;49.768;8.636;2023-07-20T10:01:29;23.40;93.70
59651;DHT22;45954;49.768;8.636;2023-07-20T10:03:59;23.50;94.60
59651;DHT22;45954;49.768;8.636;2023-07-20T10:06:29;23.40;93.70
59651;DHT22;45954;49.768;8.636;2023-07-20T10:09:01;23.70;93.80
59651;DHT22;45954;49.768;8.636;2023-07-20T10:11:35;23.20;93.40
59651;DHT22;45954;49.768;8.636;2023-07-20T10:14:05;23.30;93.10
59651;DHT22;45954;49.768;8.636;2023-07-20T10:16:42;23.50;92.60
59651;DHT22;45954;49.768;8.636;2023-07-20T10:19:27;23.60;92.60
59651;DHT22;45954;49.768;8.636;2023-07-20T10:22:06;24.50;92.60
59651;DHT22;45954;49.768;8.636;2023-07-20T10:24:34;25.00;92.10
59651;DHT22;45954;49.768;8.636;2023-07-20T10:27:01;25.30;92.30
59651;DHT22;45954;49.768;8.636;2023-07-20T10:29:28;25.20;91.00
59651;DHT22;45954;49.768;8.636;2023-07-20T10:31:56;24.80;91.50
59651;DHT22;45954;49.768;8.636;2023-07-20T10:34:22;24.50;91.80
59651;DHT22;45954;49.768;8.636;2023-07-20T10:36:49;24.40;92.10
59651;DHT22;45954;49.768;8.636;2023-07-20T10:39:28;24.30;91.20
59651;DHT22;45954;49.768;8.636;2023-07-20T10:42:01;24.40;91.30
59651;DHT22;45954;49.768;8.636;2023-07-20T10:44:37;24.40;90.90
59651;DHT22;45954;49.768;8.636;2023-07-20T10:47:09;24.20;91.00
59651;DHT22;45954;49.768;8.636;2023-07-20T10:49:59;24.20;91.00
59651;DHT22;45954;49.768;8.636;2023-07-20T10:52:37;24.80;91.60
59651;DHT22;45954;49.768;8.636;2023-07-20T10:55:17;25.30;90.50
59651;DHT22;45954;49.768;8.636;2023-07-20T10:57:43;25.60;90.80
59651;DHT22;45954;49.768;8.636;2023-07-20T11:00:11;25.30;88.60
59651;DHT22;45954;49.768;8.636;2023-07-20T11:02:48;24.80;90.60
59651;DHT22;45954;49.768;8.636;2023-07-20T11:05:39;25.00;89.20
59651;DHT22;45954;49.768;8.636;2023-07-20T11:08:10;24.60;88.50
59651;DHT22;45954;49.768;8.636;2023-07-20T11:10:37;25.00;88.30
59651;DHT22;45954;49.768;8.636;2023-07-20T11:13:23;25.10;87.10
59651;DHT22;45954;49.768;8.636;2023-07-20T11:18:26;24.80;88.00
59651;DHT22;45954;49.768;8.636;2023-07-20T11:20:53;24.60;89.10
59651;DHT22;45954;49.768;8.636;2023-07-20T11:23:22;25.20;89.80
59651;DHT22;45954;49.768;8.636;2023-07-20T11:25:49;25.20;86.80
59651;DHT22;45954;49.768;8.636;2023-07-20T11:28:16;25.20;87.00
59651;DHT22;45954;49.768;8.636;2023-07-20T11:30:41;25.60;86.30
59651;DHT22;45954;49.768;8.636;2023-07-20T11:33:10;25.70;87.00
59651;DHT22;45954;49.768;8.636;2023-07-20T11:35:43;25.80;85.10
59651;DHT22;45954;49.768;8.636;2023-07-20T11:38:10;26.20;84.40
59651;DHT22;45954;49.768;8.636;2023-07-20T11:40:43;26.00;83.60
59651;DHT22;45954;49.768;8.636;2023-07-20T11:43:11;26.10;85.20
59651;DHT22;45954;49.768;8.636;2023-07-20T11:45:39;25.10;83.90
59651;DHT22;45954;49.768;8.636;2023-07-20T11:48:05;25.00;84.60
59651;DHT22;45954;49.768;8.636;2023-07-20T11:50:31;25.00;85.60
59651;DHT22;45954;49.768;8.636;2023-07-20T11:52:57;25.20;86.60
59651;DHT22;45954;49.768;8.636;2023-07-20T11:55:23;25.10;85.50
59651;DHT22;45954;49.768;8.636;2023-07-20T11:58:06;25.30;86.40
59651;DHT22;45954;49.768;8.636;2023-07-20T12:00:35;26.00;84.80
59651;DHT22;45954;49.768;8.636;2023-07-20T12:03:05;25.90;83.90
59651;DHT22;45954;49.768;8.636;2023-07-20T12:05:33;26.60;84.10
59651;DHT22;45954;49.768;8.636;2023-07-20T12:07:59;26.60;83.10
59651;DHT22;45954;49.768;8.636;2023-07-20T12:10:27;26.70;85.10
59651;DHT22;45954;49.768;8.636;2023-07-20T12:13:03;26.20;81.50
59651;DHT22;45954;49.768;8.636;2023-07-20T12:15:29;26.30;82.60
59651;DHT22;45954;49.768;8.636;2023-07-20T12:17:59;25.70;82.70
59651;DHT22;45954;49.768;8.636;2023-07-20T12:23:01;25.00;84.60
59651;DHT22;45954;49.768;8.636;2023-07-20T12:25:40;25.00;85.20
59651;DHT22;45954;49.768;8.636;2023-07-20T12:28:12;24.60;86.60
59651;DHT22;45954;49.768;8.636;2023-07-20T12:30:43;24.70;88.00
59651;DHT22;45954;49.768;8.636;2023-07-20T12:33:09;24.70;86.40
59651;DHT22;45954;49.768;8.636;2023-07-20T12:35:35;24.60;86.10
59651;DHT22;45954;49.768;8.636;2023-07-20T12:38:02;24.30;86.00
59651;DHT22;45954;49.768;8.636;2023-07-20T12:40:28;24.30;86.00
59651;DHT22;45954;49.768;8.636;2023-07-20T12:42:54;24.30;86.70
59651;DHT22;45954;49.768;8.636;2023-07-20T12:45:21;24.20;86.30
59651;DHT22;45954;49.768;8.636;2023-07-20T12:47:47;24.30;85.40
59651;DHT22;45954;49.768;8.636;2023-07-20T12:50:13;24.20;85.60
59651;DHT22;45954;49.768;8.636;2023-07-20T12:52:40;24.30;86.00
59651;DHT22;45954;49.768;8.636;2023-07-20T12:55:08;24.50;85.20
59651;DHT22;45954;49.768;8.636;2023-07-20T12:57:35;24.40;85.10
59651;DHT22;45954;49.768;8.636;2023-07-20T13:00:03;24.20;85.10
59651;DHT22;45954;49.768;8.636;2023-07-20T13:02:31;24.30;85.10
59651;DHT22;45954;49.768;8.636;2023-07-20T13:04:58;24.50;86.40
59651;DHT22;45954;49.768;8.636;2023-07-20T13:07:35;24.60;85.80
59651;DHT22;45954;49.768;8.636;2023-07-20T13:10:03;24.50;85.00
59651;DHT22;45954;49.768;8.636;2023-07-20T13:12:32;24.20;85.60
59651;DHT22;45954;49.768;8.636;2023-07-20T13:14:59;24.20;85.80
59651;DHT22;45954;49.768;8.636;2023-07-20T13:17:29;24.30;86.50
59651;DHT22;45954;49.768;8.636;2023-07-20T13:19:55;24.50;86.00
59651;DHT22;45954;49.768;8.636;2023-07-20T13:22:21;24.50;85.00
59651;DHT22;45954;49.768;8.636;2023-07-20T13:24:47;24.50;84.80
59651;DHT22;45954;49.768;8.636;2023-07-20T13:27:18;24.90;84.70
59651;DHT22;45954;49.768;8.636;2023-07-20T13:29:44;25.10;85.70
59651;DHT22;45954;49.768;8.636;2023-07-20T13:32:14;25.00;83.40
59651;DHT22;45954;49.768;8.636;2023-07-20T13:34:41;24.90;84.00
59651;DHT22;45954;49.768;8.636;2023-07-20T13:37:08;24.90;84.40
59651;DHT22;45954;49.768;8.636;2023-07-20T13:39:34;25.20;85.10
59651;DHT22;45954;49.768;8.636;2023-07-20T13:42:00;25.30;83.80
59651;DHT22;45954;49.768;8.636;2023-07-20T13:44:29;25.40;83.20
59651;DHT22;45954;49.768;8.636;2023-07-20T13:46:55;25.60;83.10
59651;DHT22;45954;49.768;8.636;2023-07-20T13:49:21;25.70;83.20
59651;DHT22;45954;49.768;8.636;2023-07-20T13:51:47;26.60;84.00
59651;DHT22;45954;49.768;8.636;2023-07-20T13:54:12;27.60;82.80
59651;DHT22;45954;49.768;8.636;2023-07-20T13:56:38;28.10;80.90
59651;DHT22;45954;49.768;8.636;2023-07-20T13:59:04;27.40;80.40
59651;DHT22;45954;49.768;8.636;2023-07-20T14:01:30;26.80;79.70
59651;DHT22;45954;49.768;8.636;2023-07-20T14:03:58;27.10;78.80
59651;DHT22;45954;49.768;8.636;2023-07-20T14:06:24;27.00;78.80
59651;DHT22;45954;49.768;8.636;2023-07-20T14:08:50;26.40;79.20
59651;DHT22;45954;49.768;8.636;2023-07-20T14:11:18;26.70;79.20
59651;DHT22;45954;49.768;8.636;2023-07-20T14:13:44;27.40;80.40
59651;DHT22;45954;49.768;8.636;2023-07-20T14:16:10;28.50;79.90
59651;DHT22;45954;49.768;8.636;2023-07-20T14:18:36;28.70;75.60
59651;DHT22;45954;49.768;8.636;2023-07-20T14:21:02;27.70;77.10
59651;DHT22;45954;49.768;8.636;2023-07-20T14:23:31;27.80;78.00
59651;DHT22;45954;49.768;8.636;2023-07-20T14:25:56;28.30;76.40
59651;DHT22;45954;49.768;8.636;2023-07-20T14:28:22;28.10;75.70
59651;DHT22;45954;49.768;8.636;2023-07-20T14:30:48;28.60;75.50
59651;DHT22;45954;49.768;8.636;2023-07-20T14:33:14;28.70;75.30
59651;DHT22;45954;49.768;8.636;2023-07-20T14:35:40;28.40;75.40
59651;DHT22;45954;49.768;8.636;2023-07-20T14:38:06;28.70;76.90
59651;DHT22;45954;49.768;8.636;2023-07-20T14:40:32;29.10;74.10
59651;DHT22;45954;49.768;8.636;2023-07-20T14:42:58;28.80;76.10
59651;DHT22;45954;49.768;8.636;2023-07-20T14:45:27;29.50;73.30
59651;DHT22;45954;49.768;8.636;2023-07-20T14:47:53;28.90;75.60
59651;DHT22;45954;49.768;8.636;2023-07-20T14:50:20;28.80;74.70
59651;DHT22;45954;49.768;8.636;2023-07-20T14:52:46;27.80;75.00
59651;DHT22;45954;49.768;8.636;2023-07-20T14:55:13;28.50;76.40
59651;DHT22;45954;49.768;8.636;2023-07-20T14:57:39;29.80;73.70
59651;DHT22;45954;49.768;8.636;2023-07-20T15:00:05;29.80;73.30
59651;DHT22;45954;49.768;8.636;2023-07-20T15:02:38;30.40;70.40
59651;DHT22;45954;49.768;8.636;2023-07-20T15:05:07;31.30;71.80
59651;DHT22;45954;49.768;8.636;2023-07-20T15:07:33;31.50;70.80
59651;DHT22;45954;49.768;8.636;2023-07-20T15:10:00;30.90;69.60
59651;DHT22;45954;49.768;8.636;2023-07-20T15:12:26;30.10;71.70
59651;DHT22;45954;49.768;8.636;2023-07-20T15:15:10;29.10;70.80
59651;DHT22;45954;49.768;8.636;2023-07-20T15:17:39;28.20;71.40
59651;DHT22;45954;49.768;8.636;2023-07-20T15:20:07;28.70;72.00
59651;DHT22;45954;49.768;8.636;2023-07-20T15:22:35;30.30;72.60
59651;DHT22;45954;49.768;8.636;2023-07-20T15:25:05;30.10;69.70
59651;DHT22;45954;49.768;8.636;2023-07-20T15:27:32;29.60;70.10
59651;DHT22;45954;49.768;8.636;2023-07-20T15:29:59;28.80;71.70
59651;DHT22;45954;49.768;8.636;2023-07-20T15:32:25;29.10;69.60
59651;DHT22;45954;49.768;8.636;2023-07-20T15:34:51;30.10;70.80
59651;DHT22;45954;49.768;8.636;2023-07-20T15:37:17;31.00;68.40
59651;DHT22;45954;49.768;8.636;2023-07-20T15:39:43;31.10;69.00
59651;DHT22;45954;49.768;8.636;2023-07-20T15:42:09;29.80;68.00
59651;DHT22;45954;49.768;8.636;2023-07-20T15:44:35;28.50;68.90
59651;DHT22;45954;49.768;8.636;2023-07-20T15:47:01;27.70;69.00
59651;DHT22;45954;49.768;8.636;2023-07-20T15:49:28;27.90;70.70
59651;DHT22;45954;49.768;8.636;2023-07-20T15:51:54;28.20;71.50
59651;DHT22;45954;49.768;8.636;2023-07-20T15:54:20;27.90;69.40
59651;DHT22;45954;49.768;8.636;2023-07-20T15:56:46;27.70;70.00